createdAt,value
2019-03-11T00:00:54.746Z,1.13
2019-03-11T00:05:56.433Z,1.20
2019-03-11T00:10:58.102Z,1.47
2019-03-11T00:15:59.769Z,1.50
2019-03-11T00:21:01.499Z,1.50
2019-03-11T00:26:03.172Z,1.50
2019-03-11T00:31:04.840Z,1.67
2019-03-11T00:36:06.548Z,2.10
2019-03-11T00:41:08.233Z,1.97
2019-03-11T00:46:09.948Z,1.77
2019-03-11T00:51:11.558Z,1.37
2019-03-11T00:56:13.156Z,2.07
2019-03-11T01:01:14.771Z,2.33
2019-03-11T01:06:16.442Z,2.20
2019-03-11T01:11:18.150Z,2.17
2019-03-11T01:16:19.793Z,1.87
2019-03-11T01:21:21.584Z,2.00
2019-03-11T01:26:23.197Z,1.93
2019-03-11T01:31:24.779Z,2.20
2019-03-11T01:36:26.404Z,2.13
2019-03-11T01:41:28.151Z,1.93
2019-03-11T01:46:29.767Z,2.00
2019-03-11T01:51:31.424Z,2.40
2019-03-11T01:56:33.096Z,1.97
2019-03-11T02:01:34.730Z,2.23
2019-03-11T02:06:36.412Z,2.27
2019-03-11T02:11:38.012Z,3.27
2019-03-11T02:16:39.644Z,2.47
2019-03-11T02:21:41.303Z,2.20
2019-03-11T02:26:42.986Z,2.20
2019-03-11T02:31:44.652Z,2.40
2019-03-11T02:36:46.321Z,2.93
2019-03-11T02:41:47.978Z,2.40
2019-03-11T02:46:49.614Z,2.47
2019-03-11T02:51:51.239Z,2.40
2019-03-11T02:56:52.876Z,2.50
2019-03-11T03:01:54.533Z,3.90
2019-03-11T03:06:56.124Z,3.10
2019-03-11T03:11:57.708Z,2.37
2019-03-11T03:16:59.362Z,1.97
2019-03-11T03:22:00.964Z,3.43
2019-03-11T03:27:02.694Z,2.27
2019-03-11T03:32:04.326Z,2.43
2019-03-11T03:37:05.892Z,2.57
2019-03-11T03:42:08.171Z,2.90
2019-03-11T03:47:09.865Z,2.87
2019-03-11T03:52:11.597Z,3.17
2019-03-11T03:57:13.203Z,1.73
2019-03-11T04:02:14.820Z,3.03
2019-03-11T04:07:16.556Z,2.40
2019-03-11T04:12:18.233Z,2.03
2019-03-11T04:17:19.834Z,2.00
2019-03-11T04:22:21.426Z,2.30
2019-03-11T04:27:23.054Z,3.40
2019-03-11T04:32:24.722Z,2.10
2019-03-11T04:37:26.345Z,2.10
2019-03-11T04:42:28.095Z,3.20
2019-03-11T04:47:32.097Z,2.67
2019-03-11T04:52:33.694Z,2.80
2019-03-11T04:57:45.924Z,2.33
2019-03-11T05:02:47.530Z,2.50
2019-03-11T05:07:49.247Z,2.20
2019-03-11T05:12:50.854Z,2.53
2019-03-11T05:17:52.471Z,2.20
2019-03-11T05:22:55.067Z,2.63
2019-03-11T05:27:56.856Z,2.63
2019-03-11T05:32:58.631Z,2.93
2019-03-11T05:38:00.249Z,2.40
2019-03-11T05:43:01.998Z,3.07
2019-03-11T05:48:03.627Z,3.00
2019-03-11T05:53:05.223Z,2.67
2019-03-11T05:58:06.818Z,2.87
2019-03-11T06:03:08.432Z,2.63
2019-03-11T06:08:19.742Z,2.53
2019-03-11T06:13:21.468Z,2.33
2019-03-11T06:18:23.014Z,2.77
2019-03-11T06:23:24.672Z,3.05
2019-03-11T06:28:26.291Z,2.87
2019-03-11T06:33:27.915Z,2.90
2019-03-11T06:38:29.505Z,3.10
2019-03-11T06:43:31.190Z,2.80
2019-03-11T06:48:32.823Z,2.73
2019-03-11T06:53:34.393Z,3.20
2019-03-11T06:58:36.002Z,2.60
2019-03-11T07:03:38.744Z,4.00
2019-03-11T07:08:40.348Z,2.97
2019-03-11T07:13:42.059Z,2.53
2019-03-11T07:18:43.695Z,2.47
2019-03-11T07:23:45.276Z,2.63
2019-03-11T07:28:46.908Z,3.07
2019-03-11T07:33:48.564Z,2.90
2019-03-11T07:38:50.289Z,2.77
2019-03-11T07:43:51.991Z,3.00
2019-03-11T07:48:53.586Z,3.63
2019-03-11T07:53:55.303Z,3.27
2019-03-11T07:58:57.160Z,3.77
2019-03-11T08:04:02.238Z,2.80
2019-03-11T08:09:05.566Z,2.70
2019-03-11T08:14:08.930Z,2.93
2019-03-11T08:19:12.255Z,2.90
2019-03-11T08:24:16.857Z,3.30
2019-03-11T08:29:18.820Z,2.40
2019-03-11T08:34:20.586Z,3.83
2019-03-11T08:39:22.714Z,2.83
2019-03-11T08:44:24.417Z,2.53
2019-03-11T08:49:26.130Z,2.77
2019-03-11T08:54:27.874Z,2.93
2019-03-11T08:59:29.767Z,2.77
2019-03-11T09:04:31.635Z,2.67
2019-03-11T09:09:33.296Z,2.60
2019-03-11T09:14:34.945Z,2.43
2019-03-11T09:19:36.774Z,3.10
2019-03-11T09:24:38.437Z,3.60
2019-03-11T09:29:40.108Z,3.57
2019-03-11T09:34:41.800Z,2.37
2019-03-11T09:39:43.407Z,2.83
2019-03-11T09:44:45.020Z,3.00
2019-03-11T09:49:46.683Z,2.60
2019-03-11T09:54:48.398Z,2.70
2019-03-11T09:59:50.009Z,2.53
2019-03-11T10:04:51.588Z,2.80
2019-03-11T10:09:53.276Z,3.00
2019-03-11T10:14:54.993Z,2.40
2019-03-11T10:19:56.788Z,2.60
2019-03-11T10:24:58.868Z,2.90
2019-03-11T10:30:00.445Z,2.60
2019-03-11T10:35:02.065Z,2.50
2019-03-11T10:40:04.595Z,3.30
2019-03-11T10:45:06.448Z,3.07
2019-03-11T10:50:08.789Z,2.90
2019-03-11T10:55:11.001Z,3.40
2019-03-11T11:00:15.252Z,3.47
2019-03-11T11:05:16.812Z,3.37
2019-03-11T11:10:18.412Z,3.30
2019-03-11T11:15:20.400Z,3.70
2019-03-11T11:20:22.464Z,3.10
2019-03-11T11:25:24.077Z,3.07
2019-03-11T11:30:25.636Z,3.30
2019-03-11T11:35:27.242Z,3.37
2019-03-11T11:40:28.828Z,3.07
2019-03-11T11:45:30.468Z,3.10
2019-03-11T11:50:32.140Z,3.53
2019-03-11T11:55:33.748Z,3.07
2019-03-11T12:00:35.646Z,2.57
2019-03-11T12:05:37.282Z,3.33
2019-03-11T12:10:38.878Z,2.77
2019-03-11T12:15:40.528Z,2.90
2019-03-11T12:20:42.154Z,2.87
2019-03-11T12:25:43.861Z,3.00
2019-03-11T12:30:45.421Z,4.53
2019-03-11T12:35:47.218Z,2.87
2019-03-11T12:40:48.830Z,3.30
2019-03-11T12:45:50.480Z,2.80
2019-03-11T12:50:52.079Z,3.40
2019-03-11T12:55:53.687Z,3.23
2019-03-11T13:00:55.364Z,3.60
2019-03-11T13:05:57.082Z,3.60
2019-03-11T13:10:58.684Z,3.03
2019-03-11T13:16:00.332Z,2.87
2019-03-11T13:21:17.530Z,3.00
2019-03-11T13:26:19.301Z,3.07
2019-03-11T13:31:20.872Z,3.63
2019-03-11T13:36:22.469Z,3.23
2019-03-11T13:41:24.045Z,2.70
2019-03-11T13:46:25.647Z,3.30
2019-03-11T13:51:27.326Z,3.00
2019-03-11T13:56:29.011Z,2.90
2019-03-11T14:01:30.619Z,3.27
2019-03-11T14:06:32.477Z,3.10
2019-03-11T14:11:34.051Z,4.03
2019-03-11T14:16:35.675Z,3.40
2019-03-11T14:21:37.294Z,3.00
2019-03-11T14:26:38.978Z,2.77
2019-03-11T14:31:40.560Z,2.77
2019-03-11T14:36:42.145Z,2.90
2019-03-11T14:41:43.770Z,2.47
2019-03-11T14:46:45.459Z,3.17
2019-03-11T14:51:47.138Z,3.20
2019-03-11T14:56:48.758Z,3.13
2019-03-11T15:01:50.378Z,3.40
2019-03-11T15:06:52.836Z,3.20
2019-03-11T15:11:54.638Z,3.50
2019-03-11T15:16:56.253Z,3.07
2019-03-11T15:21:58.424Z,2.40
2019-03-11T15:27:00.063Z,3.60
2019-03-11T15:32:01.665Z,3.87
2019-03-11T15:37:03.313Z,3.00
2019-03-11T15:42:06.135Z,3.00
2019-03-11T15:47:07.666Z,2.70
2019-03-11T15:52:09.277Z,2.90
2019-03-11T15:57:10.876Z,2.87
2019-03-11T16:02:12.717Z,2.77
2019-03-11T16:07:14.251Z,2.73
2019-03-11T16:12:15.865Z,3.63
2019-03-11T16:17:17.435Z,3.33
2019-03-11T16:22:23.241Z,3.03
2019-03-11T16:27:22.768Z,3.10
2019-03-11T16:32:24.318Z,3.07
2019-03-11T16:37:26.014Z,3.03
2019-03-11T16:42:27.855Z,3.10
2019-03-11T16:47:29.561Z,2.70
2019-03-11T16:52:31.223Z,2.90
2019-03-11T16:57:35.202Z,2.87
2019-03-11T17:02:36.951Z,3.13
2019-03-11T17:07:38.577Z,2.97
2019-03-11T17:12:40.204Z,3.00
2019-03-11T17:17:42.329Z,3.33
2019-03-11T17:22:44.063Z,2.80
2019-03-11T17:27:45.678Z,3.20
2019-03-11T17:32:47.327Z,2.57
2019-03-11T17:37:53.032Z,2.70
2019-03-11T17:42:57.878Z,2.87
2019-03-11T17:47:59.537Z,2.90
2019-03-11T17:53:01.134Z,4.10
2019-03-11T17:58:02.763Z,2.90
2019-03-11T18:03:04.370Z,3.10
2019-03-11T18:08:06.124Z,2.67
2019-03-11T18:13:07.726Z,3.40
2019-03-11T18:18:09.382Z,2.90
2019-03-11T18:23:10.960Z,3.13
2019-03-11T18:28:12.707Z,3.40
2019-03-11T18:33:14.324Z,2.80
2019-03-11T18:38:15.969Z,2.60
2019-03-11T18:43:20.975Z,3.13
2019-03-11T18:48:22.158Z,2.90
2019-03-11T18:53:23.890Z,2.60
2019-03-11T18:58:25.753Z,3.10
2019-03-11T19:03:27.554Z,2.90
2019-03-11T19:08:31.386Z,4.07
2019-03-11T19:13:33.002Z,3.10
2019-03-11T19:18:37.488Z,2.97
2019-03-11T19:23:40.266Z,3.40
2019-03-11T19:28:41.861Z,2.80
2019-03-11T19:33:43.824Z,3.13
2019-03-11T19:38:47.601Z,3.27
2019-03-11T19:43:51.266Z,3.17
2019-03-11T19:48:53.310Z,2.80
2019-03-11T19:53:57.593Z,3.70
2019-03-11T19:58:59.821Z,3.67
2019-03-11T20:04:02.740Z,2.63
2019-03-11T20:09:07.187Z,2.70
2019-03-11T20:14:09.285Z,2.60
2019-03-11T20:19:11.092Z,3.60
2019-03-11T20:24:12.857Z,3.10
2019-03-11T20:29:23.296Z,2.90
2019-03-11T20:34:24.405Z,2.93
2019-03-11T20:39:26.468Z,2.70
2019-03-11T20:44:28.226Z,2.70
2019-03-11T20:49:29.935Z,3.40
2019-03-11T20:54:33.016Z,3.57
2019-03-11T20:59:35.268Z,4.47
2019-03-11T21:04:37.420Z,3.90
2019-03-11T21:09:39.229Z,3.20
2019-03-11T21:14:40.866Z,2.87
2019-03-11T21:19:45.067Z,2.80
2019-03-11T21:24:55.528Z,3.23
2019-03-11T21:29:51.863Z,3.47
2019-03-11T21:34:55.816Z,2.87
2019-03-11T21:39:58.062Z,2.77
2019-03-11T21:44:59.749Z,4.30
2019-03-11T21:50:01.531Z,3.30
2019-03-11T21:55:03.377Z,3.23
2019-03-11T22:00:05.728Z,3.50
2019-03-11T22:05:07.441Z,3.83
2019-03-11T22:10:09.699Z,3.00
2019-03-11T22:15:11.742Z,5.13
2019-03-11T22:20:13.596Z,4.50
2019-03-11T22:25:15.332Z,4.23
2019-03-11T22:30:17.976Z,4.80
2019-03-11T22:35:20.107Z,4.53
2019-03-11T22:40:21.712Z,4.53
2019-03-11T22:45:23.429Z,5.10
2019-03-11T22:50:24.995Z,5.20
2019-03-11T22:55:26.598Z,4.67
2019-03-11T23:00:34.139Z,5.33
2019-03-11T23:05:35.829Z,4.83
2019-03-11T23:10:37.573Z,5.80
2019-03-11T23:15:39.214Z,5.40
2019-03-11T23:20:40.856Z,5.97
2019-03-11T23:25:42.445Z,5.03
2019-03-11T23:30:44.168Z,5.53
2019-03-11T23:35:46.097Z,6.43
2019-03-11T23:40:47.656Z,6.10
2019-03-11T23:45:49.251Z,5.77
2019-03-11T23:50:50.825Z,5.70
2019-03-11T23:55:52.581Z,6.63
